La Junta, CO (81050)

6:51 PM MDT on July 24, 2016 (GMT -0600)
North La Junta | | Change Station

Elev 4058 ft 37.99 °N, 103.53 °W | Updated 2 seconds ago

Overcast
Overcast
75.7 °F
Feels Like 77 °F
N
5.7
Wind Variable Wind from WSW
Gusts 7.5 mph

Today
High -- | Low -- °F
--% Chance of Precip.
Yesterday
High -- | Low -- °F
Precip. -- in
Pressure 30.18 in
Visibility 1.0 miles
Clouds Few 2800 ft
Mostly Cloudy 7000 ft
Overcast 8500 ft
Heat Index 77 °F
Dew Point 65 °F
Humidity 70%
Rainfall 0.00 in
Snow Depth Not available.
5:51 AM 8:09 PM
Waning Gibbous, 71% visible
SPECI KLHX 250048Z AUTO 26040G55KT 1SM -TSRA FEW028 BKN070 OVC085 22/17 A3018 RMK AO2 PK WND 26055/0048 WSHFT 0026 LTG DSNT ALQDS RAB45 TSB39 PRESRR P0010 $
Pressure 30.18 in
Visibility 1.0 miles
Clouds Few 2800 ft
Mostly Cloudy 7000 ft
Overcast 8500 ft
Heat Index 77 °F
Dew Point 65 °F
Humidity 70%
Rainfall 0.00 in
Snow Depth Not available.
5:51 AM 8:09 PM
Waning Gibbous, 71% visible
SPECI KLHX 250048Z AUTO 26040G55KT 1SM -TSRA FEW028 BKN070 OVC085 22/17 A3018 RMK AO2 PK WND 26055/0048 WSHFT 0026 LTG DSNT ALQDS RAB45 TSB39 PRESRR P0010 $

10-Day Weather Forecast

Almanac

Astronomy

Jul. 24, 2016 Rise Set
Actual Time
Civil Twilight
Nautical Twilight
Astronomical Twilight
Moon
Length of Visible Light
Length of Day
Tomorrow will be .
, % of the Moon is Illuminated

Today's Extremes

State Highs State Lows

Community

WunderPhotos

Upload Photos

1,927,218 photos uploaded!

WunderBlog® & News

Nearby

Air Quality

  Air Quality AQ Index Pollutant
Not available.

Snow Depth

Station Depth Elevation

Earthquake Activity

City Distance Mag. Time & Date
Minimum magnitude displayed is 2.5.

Coastal Water Temperatures

Place Temperature

Stations

Nearby Weather Stations

Station Location Temp. Windchill Dew Point Humidity Wind Precip. Elev Updated Type
                   

Watches & Warnings

There are currently no watches in effect.